»·PEaware :: WAT169 KSNA-KLAS

WAT169 :: KSNA-KLAS

FLIGHT INFORMATION

Flight Status: Arrived
Operator: Unknown
More flights by this operator :: More flights under this callsign
Pilot: Marty P. (27464)
Aircraft: BOMBARDIER BD-100 CHALLENGER 300
(CL30)
More flights by this aircraft type
Origin: KSNA John Wayne-Orange Co
United States
Destination: KLAS McCarran Intl
United States
More flights between these airports :: More routes between these airports
Route: FINZZ2 MISEN KEPEC6
File this flight plan on PilotEdge
Remarks:
Altitude:
(Current/Filed)
29,000ft
Speed:
(Current/Filed)
470kts
Departed: 20-Mar-20 01:10 PM
Arrived: 20-Mar-20 02:05 PM
Distance/Time
Traveled:
196nm/0:54
Distance/Time
To Go:
Arrived

Flight Plot

Page will automatically refresh every two minutes.

Flight plan parsing failed; only flown route is shown


Map Options




Map Legend


Flown Route
Filed Route
Departure Airport
Arrival Airport
Navaid (VOR, NDB)
Fix

Horizontal Profiles

Position Reports

Time Latitude Longitude Heading Altitude Ground
Speed
20-Mar-20 12:43 33.674978 -117.865011 118 63ft 0kts
20-Mar-20 12:44 33.674978 -117.865011 118 63ft 0kts
20-Mar-20 12:45 33.674978 -117.865011 118 63ft 0kts
20-Mar-20 12:46 33.674978 -117.865011 118 63ft 0kts
20-Mar-20 12:47 33.674978 -117.865011 118 63ft 0kts
20-Mar-20 12:48 33.674978 -117.865011 118 63ft 0kts
20-Mar-20 12:49 33.674978 -117.865011 118 63ft 0kts
20-Mar-20 12:50 33.674978 -117.865011 118 63ft 0kts
20-Mar-20 12:51 33.674978 -117.865011 118 63ft 0kts
20-Mar-20 12:52 33.674978 -117.865011 118 63ft 0kts
20-Mar-20 12:53 33.674978 -117.865011 118 63ft 0kts
20-Mar-20 12:54 33.674978 -117.865011 118 63ft 0kts
20-Mar-20 12:55 33.674978 -117.865011 118 63ft 0kts
20-Mar-20 12:56 33.674978 -117.865011 118 63ft 0kts
20-Mar-20 12:57 33.674978 -117.865011 118 63ft 0kts
20-Mar-20 12:58 33.674978 -117.865011 118 63ft 0kts
20-Mar-20 12:59 33.674976 -117.865007 118 63ft 0kts
20-Mar-20 13:00 33.675177 -117.865458 118 63ft 2kts
20-Mar-20 13:01 33.675114 -117.865839 27 63ft 0kts
20-Mar-20 13:02 33.675114 -117.865839 27 63ft 0kts
20-Mar-20 13:03 33.676775 -117.864783 27 63ft 12kts
20-Mar-20 13:04 33.679725 -117.862916 27 63ft 8kts
20-Mar-20 13:05 33.680501 -117.862804 317 62ft 2kts
20-Mar-20 13:06 33.680713 -117.863214 298 63ft 0kts
20-Mar-20 13:07 33.680713 -117.863214 298 63ft 0kts
20-Mar-20 13:08 33.680918 -117.863663 298 63ft 9kts
20-Mar-20 13:09 33.671415 -117.871533 206 72ft 161kts
20-Mar-20 13:10 33.623318 -117.889544 188 1937ft 196kts
20-Mar-20 13:11 33.569774 -117.903631 217 3848ft 206kts
20-Mar-20 13:12 33.527311 -117.949608 221 5093ft 208kts
20-Mar-20 13:13 33.492324 -118.009996 282 5527ft 255kts
20-Mar-20 13:14 33.538339 -118.075918 312 7783ft 265kts
20-Mar-20 13:15 33.598608 -118.119617 19 8167ft 276kts
20-Mar-20 13:16 33.668992 -118.082887 22 13158ft 291kts
20-Mar-20 13:17 33.742421 -118.040549 23 15443ft 359kts
20-Mar-20 13:18 33.833008 -117.987664 22 16087ft 387kts
20-Mar-20 13:19 33.923225 -117.928276 33 16090ft 368kts
20-Mar-20 13:20 34.002980 -117.856394 34 16087ft 358kts
20-Mar-20 13:21 34.083240 -117.782631 37 18928ft 374kts
20-Mar-20 13:22 34.151896 -117.684716 47 21964ft 404kts
20-Mar-20 13:23 34.219830 -117.583678 45 26139ft 376kts
20-Mar-20 13:24 34.287444 -117.483108 44 28276ft 400kts
20-Mar-20 13:25 34.360263 -117.374461 44 29289ft 455kts
20-Mar-20 13:27 34.444951 -117.247477 46 29267ft 524kts
20-Mar-20 13:28 34.541190 -117.102726 46 29261ft 561kts
20-Mar-20 13:29 34.639578 -116.959202 45 29262ft 545kts
20-Mar-20 13:30 34.738111 -116.815164 46 29269ft 560kts
20-Mar-20 13:31 34.837915 -116.669176 43 29264ft 556kts
20-Mar-20 13:32 34.953901 -116.548558 33 29274ft 545kts
20-Mar-20 13:33 35.072719 -116.432742 32 29277ft 543kts
20-Mar-20 13:34 35.179791 -116.306691 41 29259ft 545kts
20-Mar-20 13:35 35.285809 -116.173857 42 29256ft 541kts
20-Mar-20 13:36 35.386228 -116.047247 42 27276ft 478kts
20-Mar-20 13:37 35.476116 -115.933605 42 23735ft 450kts
20-Mar-20 13:38 35.561176 -115.825660 43 19737ft 427kts
20-Mar-20 13:39 35.640824 -115.724276 44 15737ft 398kts
20-Mar-20 13:40 35.713210 -115.631863 45 13018ft 329kts
20-Mar-20 13:41 35.781836 -115.576518 3 13043ft 302kts
20-Mar-20 13:42 35.869113 -115.569400 359 13025ft 312kts
20-Mar-20 13:43 35.955201 -115.561244 21 13008ft 310kts
20-Mar-20 13:44 35.999782 -115.472648 68 11290ft 301kts
20-Mar-20 13:44 36.023987 -115.397536 69 11019ft 275kts
20-Mar-20 13:45 36.025886 -115.307117 96 10031ft 271kts
20-Mar-20 13:47 36.018554 -115.202637 96 8986ft 261kts
20-Mar-20 13:48 36.012796 -115.117507 96 8013ft 232kts
20-Mar-20 13:48 36.008526 -115.050887 95 8020ft 235kts
20-Mar-20 13:49 36.003605 -114.968466 95 8002ft 245kts
20-Mar-20 13:51 35.997578 -114.868425 95 8011ft 253kts
20-Mar-20 13:51 35.992982 -114.795562 96 8007ft 249kts
20-Mar-20 13:52 35.987531 -114.712744 96 8007ft 234kts
20-Mar-20 13:54 35.983820 -114.623840 67 7979ft 211kts
20-Mar-20 13:54 36.025804 -114.604135 7 8007ft 195kts
20-Mar-20 13:55 36.063907 -114.631562 275 8021ft 187kts
20-Mar-20 13:56 36.071388 -114.696438 275 8026ft 188kts
20-Mar-20 13:57 36.074446 -114.760742 264 8009ft 185kts
20-Mar-20 13:58 36.072490 -114.824671 268 7186ft 176kts
20-Mar-20 13:59 36.073100 -114.887415 268 6020ft 191kts
20-Mar-20 14:00 36.073448 -114.954243 268 4974ft 197kts
20-Mar-20 14:01 36.073604 -115.015967 268 3954ft 161kts
20-Mar-20 14:02 36.073614 -115.066838 270 3156ft 138kts
20-Mar-20 14:03 36.073660 -115.114474 271 2418ft 141kts
20-Mar-20 14:04 36.073803 -115.148041 284 2188ft 22kts
20-Mar-20 14:05 36.074616 -115.150310 301 2188ft 0kts
20-Mar-20 14:06 36.078038 -115.153903 269 2188ft 19kts
20-Mar-20 14:07 36.078030 -115.161137 269 2188ft 21kts
20-Mar-20 14:08 36.078020 -115.168474 270 2188ft 21kts
20-Mar-20 14:09 36.080486 -115.169815 24 2188ft 18kts
20-Mar-20 14:10 36.081611 -115.171606 271 2188ft 0kts
20-Mar-20 14:11 36.081611 -115.171606 271 2188ft 0kts

Navigation Log

Ident Type
Flight plan parsing failed, navigation log unavailable